createdAt,value
2022-12-22T00:01:56.654Z,9.20
2022-12-22T00:07:17.374Z,9.40
2022-12-22T00:12:38.624Z,9.50
2022-12-22T00:17:59.141Z,9.50
2022-12-22T00:23:19.740Z,9.60
2022-12-22T00:28:40.307Z,9.60
2022-12-22T00:34:00.724Z,9.60
2022-12-22T00:39:21.327Z,9.60
2022-12-22T00:44:41.808Z,9.70
2022-12-22T00:50:04.689Z,9.80
2022-12-22T00:55:37.534Z,9.70
2022-12-22T01:00:57.696Z,9.70
2022-12-22T01:06:20.505Z,11.40
2022-12-22T01:11:40.828Z,9.80
2022-12-22T01:17:01.087Z,9.80
2022-12-22T01:22:21.392Z,10.00
2022-12-22T01:27:41.610Z,10.00
2022-12-22T01:33:02.211Z,10.00
2022-12-22T01:38:22.420Z,10.10
2022-12-22T01:43:46.494Z,10.10
2022-12-22T01:49:07.090Z,10.20
2022-12-22T01:54:29.283Z,10.10
2022-12-22T01:59:49.781Z,10.20
2022-12-22T02:05:11.571Z,10.20
2022-12-22T02:10:37.879Z,10.20
2022-12-22T02:16:15.962Z,13.30
2022-12-22T02:21:40.941Z,10.20
2022-12-22T02:27:09.879Z,10.20
2022-12-22T02:32:30.487Z,10.20
2022-12-22T02:38:02.594Z,10.20
2022-12-22T02:43:44.681Z,10.20
2022-12-22T02:49:13.684Z,10.40
2022-12-22T02:54:36.085Z,10.30
2022-12-22T02:59:56.649Z,10.30
2022-12-22T03:05:17.178Z,10.40
2022-12-22T03:10:37.706Z,10.20
2022-12-22T03:15:57.771Z,10.30
2022-12-22T03:21:17.841Z,11.90
2022-12-22T03:26:19.641Z,10.20
2022-12-22T03:31:21.468Z,10.50
2022-12-22T03:36:23.113Z,10.40
2022-12-22T03:41:43.247Z,10.40
2022-12-22T03:46:44.967Z,10.50
2022-12-22T03:51:51.207Z,11.70
2022-12-22T03:56:53.736Z,10.50
2022-12-22T04:01:56.082Z,10.50
2022-12-22T04:06:58.531Z,10.50
2022-12-22T04:12:18.775Z,10.60
2022-12-22T04:17:20.417Z,10.60
2022-12-22T04:22:22.149Z,10.90
2022-12-22T04:27:23.833Z,11.50
2022-12-22T04:32:25.516Z,10.80
2022-12-22T04:37:27.550Z,10.80
2022-12-22T04:42:29.703Z,10.90
2022-12-22T04:47:31.465Z,11.00
2022-12-22T04:52:34.286Z,11.00
2022-12-22T04:57:40.519Z,10.90
2022-12-22T05:02:42.752Z,10.90
2022-12-22T05:07:44.504Z,10.90
2022-12-22T05:12:55.012Z,10.90
2022-12-22T05:17:57.695Z,10.90
2022-12-22T05:22:59.415Z,10.80
2022-12-22T05:28:01.087Z,10.80
2022-12-22T05:33:02.835Z,10.80
2022-12-22T05:38:04.547Z,10.80
2022-12-22T05:43:11.191Z,10.80
2022-12-22T05:48:13.517Z,10.60
2022-12-22T05:53:15.202Z,12.90
2022-12-22T05:58:16.854Z,12.10
2022-12-22T06:03:18.679Z,10.70
2022-12-22T06:08:20.744Z,12.30
2022-12-22T06:13:22.965Z,12.30
2022-12-22T06:18:24.781Z,10.80
2022-12-22T06:23:26.476Z,10.70
2022-12-22T06:28:28.646Z,10.80
2022-12-22T06:33:30.300Z,10.70
2022-12-22T06:43:34.071Z,10.70
2022-12-22T06:48:35.831Z,11.20
2022-12-22T06:53:37.479Z,10.80
2022-12-22T06:58:39.172Z,10.80
2022-12-22T07:03:40.966Z,10.90
2022-12-22T07:08:42.643Z,11.60
2022-12-22T07:13:44.853Z,10.90
2022-12-22T07:18:46.579Z,10.90
2022-12-22T07:23:48.463Z,11.30
2022-12-22T07:28:50.156Z,10.80
2022-12-22T07:33:52.175Z,10.80
2022-12-22T07:38:53.973Z,10.90
2022-12-22T07:43:57.791Z,10.90
2022-12-22T07:49:32.305Z,10.90
2022-12-22T07:54:41.210Z,10.90
2022-12-22T07:59:43.632Z,11.00
2022-12-22T08:04:45.375Z,11.10
2022-12-22T08:09:47.279Z,11.10
2022-12-22T08:14:49.029Z,11.10
2022-12-22T08:19:50.758Z,11.60
2022-12-22T08:24:53.355Z,11.20
2022-12-22T08:29:59.066Z,11.10
2022-12-22T08:35:00.887Z,12.10
2022-12-22T08:40:06.574Z,15.20
2022-12-22T08:45:11.263Z,15.20
2022-12-22T08:50:13.897Z,16.10
2022-12-22T08:55:15.642Z,13.10
2022-12-22T09:00:29.338Z,16.00
2022-12-22T09:05:33.071Z,13.40
2022-12-22T09:10:34.857Z,12.30
2022-12-22T09:15:37.541Z,12.10
2022-12-22T09:20:39.221Z,10.50
2022-12-22T09:25:40.885Z,12.50
2022-12-22T09:30:42.580Z,12.00
2022-12-22T09:35:44.383Z,11.70
2022-12-22T09:40:46.367Z,11.60
2022-12-22T09:45:48.208Z,11.80
2022-12-22T09:50:49.969Z,11.50
2022-12-22T09:55:51.966Z,11.30
2022-12-22T10:01:05.826Z,11.00
2022-12-22T10:06:18.645Z,9.50
2022-12-22T10:11:20.451Z,10.90
2022-12-22T10:16:28.774Z,10.80
2022-12-22T10:21:30.515Z,10.60
2022-12-22T10:26:33.885Z,10.60
2022-12-22T10:31:39.937Z,10.40
2022-12-22T10:36:50.302Z,10.50
2022-12-22T10:41:55.272Z,10.50
2022-12-22T10:46:59.704Z,10.60
2022-12-22T10:52:29.414Z,10.50
2022-12-22T11:02:43.610Z,10.40
2022-12-22T11:07:49.552Z,10.30
2022-12-22T11:13:22.437Z,10.40
2022-12-22T11:18:50.599Z,9.80
2022-12-22T11:24:21.679Z,10.40
2022-12-22T11:30:04.769Z,10.40
2022-12-22T11:35:38.221Z,10.50
2022-12-22T11:40:46.878Z,10.60
2022-12-22T11:46:26.837Z,10.50
2022-12-22T11:51:55.625Z,10.60
2022-12-22T11:57:11.017Z,10.60
2022-12-22T12:02:31.192Z,10.50
2022-12-22T12:07:44.963Z,10.50
2022-12-22T12:13:10.604Z,10.50
2022-12-22T12:18:46.376Z,10.60
2022-12-22T12:23:56.371Z,10.60
2022-12-22T12:29:22.036Z,10.60
2022-12-22T12:34:25.464Z,10.60
2022-12-22T12:39:45.160Z,10.70
2022-12-22T12:44:47.733Z,10.80
2022-12-22T12:49:55.412Z,10.80
2022-12-22T12:55:29.645Z,10.80
2022-12-22T13:00:33.493Z,10.90
2022-12-22T13:05:51.755Z,10.80
2022-12-22T13:10:53.447Z,10.80
2022-12-22T13:16:04.490Z,10.90
2022-12-22T13:21:50.321Z,10.70
2022-12-22T13:26:36.462Z,10.70
2022-12-22T13:31:44.820Z,10.80
2022-12-22T13:36:48.478Z,10.90
2022-12-22T13:41:51.193Z,10.90
2022-12-22T13:46:54.443Z,10.70
2022-12-22T13:52:00.292Z,10.70
2022-12-22T13:57:17.080Z,10.70
2022-12-22T14:02:21.079Z,10.70
2022-12-22T14:07:23.211Z,10.80
2022-12-22T14:12:28.647Z,10.80
2022-12-22T14:17:36.612Z,10.80
2022-12-22T14:22:45.330Z,10.90
2022-12-22T14:27:54.616Z,10.90
2022-12-22T14:32:56.807Z,10.90
2022-12-22T14:38:21.916Z,10.80
2022-12-22T14:43:28.091Z,11.00
2022-12-22T14:48:37.048Z,10.90
2022-12-22T14:53:54.546Z,10.80
2022-12-22T14:59:23.871Z,10.80
2022-12-22T15:04:25.725Z,10.90
2022-12-22T15:10:12.378Z,11.00
2022-12-22T15:14:49.956Z,11.00
2022-12-22T15:19:55.279Z,11.00
2022-12-22T15:24:57.049Z,11.00
2022-12-22T15:29:58.893Z,11.10
2022-12-22T15:35:03.332Z,11.10
2022-12-22T15:40:12.639Z,10.90
2022-12-22T15:45:16.029Z,11.00
2022-12-22T15:50:25.554Z,11.10
2022-12-22T15:55:27.808Z,11.00
2022-12-22T16:00:29.989Z,11.10
2022-12-22T16:05:32.835Z,11.60
2022-12-22T16:10:35.013Z,11.00
2022-12-22T16:15:36.984Z,10.90
2022-12-22T16:20:41.216Z,10.90
2022-12-22T16:25:45.524Z,10.80
2022-12-22T16:30:47.860Z,10.80
2022-12-22T16:35:49.730Z,10.80
2022-12-22T16:40:53.299Z,10.70
2022-12-22T16:45:55.301Z,10.70
2022-12-22T16:50:57.186Z,10.70
2022-12-22T16:56:01.719Z,10.70
2022-12-22T17:01:03.638Z,10.70
2022-12-22T17:06:05.904Z,10.80
2022-12-22T17:11:11.373Z,10.80
2022-12-22T17:16:22.116Z,10.70
2022-12-22T17:21:24.976Z,10.80
2022-12-22T17:26:26.840Z,10.80
2022-12-22T17:31:28.777Z,10.70
2022-12-22T17:36:36.220Z,10.70
2022-12-22T17:41:38.212Z,11.50
2022-12-22T17:46:40.066Z,9.10
2022-12-22T17:51:42.542Z,10.50
2022-12-22T17:56:44.364Z,10.50
2022-12-22T18:01:46.299Z,10.40
2022-12-22T18:06:48.467Z,10.50
2022-12-22T18:11:50.691Z,10.50
2022-12-22T18:16:52.547Z,10.40
2022-12-22T18:21:54.524Z,10.70
2022-12-22T18:26:56.295Z,10.40
2022-12-22T18:31:58.130Z,10.40
2022-12-22T18:37:00.289Z,10.40
2022-12-22T18:42:03.069Z,10.40
2022-12-22T18:47:04.850Z,10.30
2022-12-22T18:52:22.091Z,10.50
2022-12-22T18:57:23.935Z,10.50
2022-12-22T19:02:28.324Z,10.50
2022-12-22T19:07:30.171Z,10.60
2022-12-22T19:17:34.069Z,10.50
2022-12-22T19:22:35.854Z,10.70
2022-12-22T19:27:38.046Z,10.70
2022-12-22T19:32:44.343Z,10.70
2022-12-22T19:37:48.008Z,10.70
2022-12-22T19:42:53.489Z,10.90
2022-12-22T19:47:56.955Z,10.90
2022-12-22T19:52:59.351Z,10.90
2022-12-22T19:58:02.214Z,11.00
2022-12-22T20:08:08.349Z,10.90
2022-12-22T20:13:19.400Z,11.30
2022-12-22T20:18:24.230Z,10.80
2022-12-22T20:23:27.775Z,10.80
2022-12-22T20:28:33.083Z,10.80
2022-12-22T20:33:35.057Z,10.80
2022-12-22T20:38:40.181Z,10.70
2022-12-22T20:43:42.072Z,10.80
2022-12-22T20:48:47.775Z,10.80
2022-12-22T20:53:50.220Z,10.70
2022-12-22T20:58:52.295Z,10.80
2022-12-22T21:03:54.459Z,10.70
2022-12-22T21:08:59.319Z,10.70
2022-12-22T21:14:01.079Z,10.70
2022-12-22T21:19:03.604Z,10.70
2022-12-22T21:24:05.684Z,10.70
2022-12-22T21:29:17.211Z,10.70
2022-12-22T21:34:20.822Z,10.60
2022-12-22T21:39:31.686Z,10.60
2022-12-22T21:44:35.477Z,10.70
2022-12-22T21:49:37.393Z,10.60
2022-12-22T21:54:39.390Z,10.40
2022-12-22T21:59:41.209Z,10.40
2022-12-22T22:04:46.730Z,10.70
2022-12-22T22:09:53.770Z,10.50
2022-12-22T22:14:55.536Z,10.50
2022-12-22T22:24:59.587Z,10.50
2022-12-22T22:30:01.451Z,10.50
2022-12-22T22:35:03.508Z,10.50
2022-12-22T22:40:07.019Z,10.50
2022-12-22T22:45:10.613Z,10.50
2022-12-22T22:50:12.599Z,10.40
2022-12-22T22:55:15.368Z,10.70
2022-12-22T23:00:18.570Z,10.50
2022-12-22T23:10:25.200Z,10.60
2022-12-22T23:15:26.944Z,10.50
2022-12-22T23:20:28.730Z,10.50
2022-12-22T23:25:30.426Z,10.30
2022-12-22T23:30:32.183Z,11.20
2022-12-22T23:35:38.399Z,10.50
2022-12-22T23:40:56.256Z,10.50
2022-12-22T23:45:58.017Z,10.50
2022-12-22T23:50:59.996Z,10.50
2022-12-22T23:56:01.842Z,10.50
